createdAt,value
2022-11-25T00:01:36.179Z,32.90
2022-11-25T00:04:04.654Z,26.63
2022-11-25T00:06:35.677Z,30.92
2022-11-25T00:09:07.007Z,24.00
2022-11-25T00:11:39.152Z,22.92
2022-11-25T00:14:08.599Z,24.05
2022-11-25T00:16:36.996Z,18.35
2022-11-25T00:19:05.379Z,20.70
2022-11-25T00:21:35.504Z,23.00
2022-11-25T00:24:08.528Z,20.48
2022-11-25T00:26:38.476Z,23.70
2022-11-25T00:29:08.863Z,23.17
2022-11-25T00:31:40.135Z,20.55
2022-11-25T00:34:08.799Z,19.67
2022-11-25T00:36:38.923Z,23.35
2022-11-25T00:39:10.954Z,20.55
2022-11-25T00:41:58.499Z,25.33
2022-11-25T00:44:40.699Z,19.63
2022-11-25T00:47:12.037Z,22.95
2022-11-25T00:49:43.283Z,24.23
2022-11-25T00:52:16.814Z,21.08
2022-11-25T00:54:45.932Z,23.65
2022-11-25T00:57:16.526Z,26.65
2022-11-25T00:59:45.003Z,20.20
2022-11-25T01:02:14.603Z,26.65
2022-11-25T01:04:43.309Z,23.25
2022-11-25T01:07:12.013Z,20.65
2022-11-25T01:09:40.454Z,25.73
2022-11-25T01:12:09.566Z,24.55
2022-11-25T01:14:39.791Z,22.45
2022-11-25T01:17:08.544Z,29.77
2022-11-25T01:19:40.050Z,19.52
2022-11-25T01:22:08.589Z,19.23
2022-11-25T01:24:37.359Z,24.90
2022-11-25T01:27:06.009Z,26.23
2022-11-25T01:29:34.336Z,18.70
2022-11-25T01:32:04.313Z,21.67
2022-11-25T01:34:34.744Z,23.30
2022-11-25T01:37:03.862Z,21.20
2022-11-25T01:39:33.327Z,24.00
2022-11-25T01:42:02.854Z,23.63
2022-11-25T01:44:33.227Z,18.23
2022-11-25T01:47:12.373Z,20.00
2022-11-25T01:49:45.209Z,20.73
2022-11-25T01:52:19.657Z,18.13
2022-11-25T01:54:54.274Z,16.40
2022-11-25T01:57:29.118Z,13.55
2022-11-25T02:00:01.531Z,21.15
2022-11-25T02:02:34.312Z,19.45
2022-11-25T02:05:05.520Z,16.73
2022-11-25T02:07:38.701Z,14.55
2022-11-25T02:10:13.913Z,16.88
2022-11-25T02:12:47.319Z,15.43
2022-11-25T02:15:17.139Z,16.02
2022-11-25T02:17:47.250Z,14.43
2022-11-25T02:20:17.728Z,16.95
2022-11-25T02:22:56.828Z,16.88
2022-11-25T02:25:30.047Z,9.63
2022-11-25T02:28:03.341Z,15.80
2022-11-25T02:30:31.787Z,11.18
2022-11-25T02:33:01.976Z,15.68
2022-11-25T02:35:35.057Z,14.88
2022-11-25T02:38:11.281Z,10.38
2022-11-25T02:40:47.803Z,13.98
2022-11-25T02:43:17.833Z,9.73
2022-11-25T02:45:54.642Z,12.52
2022-11-25T02:48:39.721Z,10.48
2022-11-25T02:51:14.381Z,14.52
2022-11-25T02:53:43.255Z,13.35
2022-11-25T02:56:14.881Z,14.63
2022-11-25T02:58:43.356Z,10.05
2022-11-25T03:01:11.981Z,13.30
2022-11-25T03:03:40.899Z,11.43
2022-11-25T03:06:13.311Z,9.52
2022-11-25T03:08:41.727Z,12.57
2022-11-25T03:11:14.361Z,11.43
2022-11-25T03:13:42.694Z,14.23
2022-11-25T03:16:11.385Z,8.13
2022-11-25T03:18:40.046Z,11.02
2022-11-25T03:21:08.543Z,12.05
2022-11-25T03:23:36.841Z,11.23
2022-11-25T03:26:08.255Z,11.15
2022-11-25T03:28:37.900Z,10.73
2022-11-25T03:31:11.575Z,12.45
2022-11-25T03:33:40.160Z,11.02
2022-11-25T03:36:09.158Z,9.55
2022-11-25T03:38:37.515Z,14.43
2022-11-25T03:41:06.814Z,11.77
2022-11-25T03:43:35.752Z,15.43
2022-11-25T03:46:05.995Z,11.13
2022-11-25T03:48:34.519Z,9.68
2022-11-25T03:51:02.821Z,11.60
2022-11-25T03:53:31.092Z,12.90
2022-11-25T03:56:01.758Z,9.85
2022-11-25T03:58:31.152Z,8.82
2022-11-25T04:01:02.180Z,10.70
2022-11-25T04:03:32.701Z,12.02
2022-11-25T04:06:01.505Z,14.10
2022-11-25T04:08:30.895Z,12.70
2022-11-25T04:11:00.153Z,13.27
2022-11-25T04:13:31.012Z,11.93
2022-11-25T04:15:59.603Z,12.02
2022-11-25T04:18:28.522Z,12.63
2022-11-25T04:21:00.856Z,7.28
2022-11-25T04:23:29.446Z,8.80
2022-11-25T04:26:02.319Z,10.55
2022-11-25T04:28:38.597Z,10.82
2022-11-25T04:31:09.095Z,9.05
2022-11-25T04:33:40.300Z,11.57
2022-11-25T04:36:11.510Z,9.48
2022-11-25T04:38:39.872Z,9.10
2022-11-25T04:41:09.488Z,7.65
2022-11-25T04:43:41.548Z,7.80
2022-11-25T04:46:17.597Z,10.43
2022-11-25T04:48:49.913Z,8.20
2022-11-25T04:51:19.931Z,8.85
2022-11-25T04:53:51.705Z,9.48
2022-11-25T04:56:21.620Z,5.20
2022-11-25T04:59:10.521Z,9.65
2022-11-25T05:01:42.695Z,5.57
2022-11-25T05:04:22.257Z,10.00
2022-11-25T05:06:52.321Z,6.57
2022-11-25T05:09:23.036Z,5.95
2022-11-25T05:12:01.976Z,8.15
2022-11-25T05:14:30.266Z,8.98
2022-11-25T05:16:58.728Z,7.25
2022-11-25T05:19:27.236Z,13.82
2022-11-25T05:21:57.033Z,9.10
2022-11-25T05:24:26.175Z,11.75
2022-11-25T05:26:55.109Z,10.30
2022-11-25T05:29:23.821Z,8.65
2022-11-25T05:31:52.070Z,8.93
2022-11-25T05:34:20.549Z,8.85
2022-11-25T05:36:49.893Z,9.48
2022-11-25T05:39:23.180Z,10.32
2022-11-25T05:42:16.118Z,10.07
2022-11-25T05:44:44.461Z,11.02
2022-11-25T05:47:12.683Z,11.57
2022-11-25T05:49:42.295Z,10.73
2022-11-25T05:52:10.587Z,8.70
2022-11-25T05:54:53.199Z,10.88
2022-11-25T05:57:24.527Z,9.55
2022-11-25T05:59:56.784Z,12.70
2022-11-25T06:02:43.395Z,7.43
2022-11-25T06:05:14.748Z,9.52
2022-11-25T06:07:43.631Z,11.15
2022-11-25T06:10:14.435Z,10.38
2022-11-25T06:12:43.293Z,10.25
2022-11-25T06:15:12.990Z,11.85
2022-11-25T06:17:41.776Z,10.88
2022-11-25T06:20:15.362Z,8.93
2022-11-25T06:22:43.682Z,14.45
2022-11-25T06:25:13.451Z,12.48
2022-11-25T06:28:11.414Z,11.30
2022-11-25T06:30:32.442Z,9.57
2022-11-25T06:33:12.979Z,19.60
2022-11-25T06:35:42.730Z,16.67
2022-11-25T06:38:11.018Z,13.55
2022-11-25T06:40:40.742Z,12.10
2022-11-25T06:43:09.002Z,16.98
2022-11-25T06:45:37.317Z,17.88
2022-11-25T06:48:06.592Z,14.75
2022-11-25T06:50:34.968Z,14.35
2022-11-25T06:53:03.428Z,13.77
2022-11-25T06:55:31.724Z,14.27
2022-11-25T06:58:20.614Z,14.52
2022-11-25T07:00:49.603Z,8.75
2022-11-25T07:03:18.018Z,9.27
2022-11-25T07:05:46.441Z,11.82
2022-11-25T07:08:14.737Z,11.02
2022-11-25T07:10:43.044Z,9.27
2022-11-25T07:13:12.823Z,11.93
2022-11-25T07:15:41.162Z,12.60
2022-11-25T07:18:09.472Z,11.27
2022-11-25T07:20:37.766Z,10.48
2022-11-25T07:23:06.266Z,9.05
2022-11-25T07:25:34.861Z,12.32
2022-11-25T07:28:03.372Z,12.60
2022-11-25T07:33:21.464Z,12.10
2022-11-25T07:35:49.746Z,11.43
2022-11-25T07:38:18.111Z,8.30
2022-11-25T07:40:46.434Z,11.18
2022-11-25T07:43:14.840Z,9.10
2022-11-25T07:45:46.229Z,6.88
2022-11-25T07:48:14.609Z,8.40
2022-11-25T07:50:42.850Z,9.57
2022-11-25T07:53:11.112Z,10.77
2022-11-25T07:55:39.657Z,10.25
2022-11-25T07:58:07.937Z,11.80
2022-11-25T08:00:36.304Z,12.20
2022-11-25T08:03:06.269Z,11.35
2022-11-25T08:05:35.203Z,14.88
2022-11-25T08:08:03.581Z,9.73
2022-11-25T08:10:32.067Z,12.98
2022-11-25T08:13:00.615Z,10.05
2022-11-25T08:15:28.971Z,8.88
2022-11-25T08:17:57.262Z,12.00
2022-11-25T08:20:26.960Z,10.45
2022-11-25T08:22:55.699Z,13.02
2022-11-25T08:25:24.071Z,11.20
2022-11-25T08:27:52.414Z,9.25
2022-11-25T08:30:25.943Z,10.43
2022-11-25T08:32:54.767Z,10.75
2022-11-25T08:35:22.980Z,9.50
2022-11-25T08:37:53.022Z,10.07
2022-11-25T08:40:21.722Z,15.50
2022-11-25T08:42:50.032Z,11.15
2022-11-25T08:45:18.472Z,10.07
2022-11-25T08:47:46.750Z,10.30
2022-11-25T08:50:16.229Z,11.52
2022-11-25T08:52:44.819Z,11.27
2022-11-25T08:55:14.621Z,10.27
2022-11-25T08:57:43.101Z,11.90
2022-11-25T09:00:13.484Z,7.43
2022-11-25T09:02:41.937Z,13.40
2022-11-25T09:05:13.622Z,11.55
2022-11-25T09:07:42.516Z,9.18
2022-11-25T09:10:17.523Z,10.80
2022-11-25T09:12:46.090Z,8.95
2022-11-25T09:15:14.534Z,7.57
2022-11-25T09:17:42.898Z,9.90
2022-11-25T09:20:11.985Z,10.25
2022-11-25T09:22:40.301Z,8.93
2022-11-25T09:25:09.794Z,10.15
2022-11-25T09:27:39.666Z,8.63
2022-11-25T09:30:09.684Z,11.82
2022-11-25T09:32:38.000Z,11.23
2022-11-25T09:35:07.188Z,10.60
2022-11-25T09:37:35.703Z,8.98
2022-11-25T09:40:05.339Z,15.15
2022-11-25T09:43:02.729Z,15.03
2022-11-25T09:46:02.386Z,12.25
2022-11-25T09:48:53.026Z,12.70
2022-11-25T09:51:24.361Z,11.15
2022-11-25T09:53:55.849Z,10.18
2022-11-25T09:56:34.711Z,13.38
2022-11-25T09:59:12.597Z,11.25
2022-11-25T10:01:49.453Z,12.18
2022-11-25T10:04:25.807Z,14.57
2022-11-25T10:07:01.105Z,13.82
2022-11-25T10:09:33.861Z,15.60
2022-11-25T10:12:11.741Z,13.70
2022-11-25T10:14:49.343Z,16.23
2022-11-25T10:17:29.368Z,15.52
2022-11-25T10:20:03.266Z,16.08
2022-11-25T10:22:35.742Z,14.25
2022-11-25T10:25:15.511Z,13.30
2022-11-25T10:27:49.519Z,16.17
2022-11-25T10:30:23.929Z,14.63
2022-11-25T10:33:02.027Z,12.07
2022-11-25T10:35:35.180Z,15.40
2022-11-25T10:38:08.130Z,19.25
2022-11-25T10:40:36.393Z,19.40
2022-11-25T10:43:13.981Z,17.67
2022-11-25T10:45:51.994Z,20.00
2022-11-25T10:48:45.496Z,18.02
2022-11-25T10:51:31.978Z,20.20
2022-11-25T10:54:16.880Z,16.65
2022-11-25T10:56:50.700Z,14.50
2022-11-25T10:59:29.020Z,15.90
2022-11-25T11:02:19.332Z,18.88
2022-11-25T11:04:56.485Z,16.45
2022-11-25T11:07:27.544Z,20.50
2022-11-25T11:10:18.261Z,14.95
2022-11-25T11:12:58.734Z,20.38
2022-11-25T11:15:29.732Z,17.23
2022-11-25T11:18:01.647Z,23.55
2022-11-25T11:20:32.300Z,23.10
2022-11-25T11:25:39.862Z,14.75
2022-11-25T11:28:29.074Z,17.52
2022-11-25T11:31:02.420Z,16.27
2022-11-25T11:33:37.762Z,18.08
2022-11-25T11:36:32.154Z,16.73
2022-11-25T11:39:22.352Z,15.73
2022-11-25T11:41:57.665Z,16.00
2022-11-25T11:44:36.047Z,18.88
2022-11-25T11:47:18.750Z,18.35
2022-11-25T11:50:23.293Z,22.83
2022-11-25T11:53:01.100Z,17.92
2022-11-25T11:56:18.980Z,16.13
2022-11-25T11:59:01.308Z,22.33
2022-11-25T12:01:46.612Z,19.02
2022-11-25T12:04:22.086Z,20.88
2022-11-25T12:07:03.159Z,20.23
2022-11-25T12:09:35.659Z,25.15
2022-11-25T12:12:08.194Z,20.02
2022-11-25T12:14:43.607Z,18.92
2022-11-25T12:17:18.125Z,19.42
2022-11-25T12:19:56.435Z,23.42
2022-11-25T12:22:31.395Z,21.92
2022-11-25T12:25:08.987Z,22.40
2022-11-25T12:27:42.350Z,18.40
2022-11-25T12:30:16.272Z,19.48
2022-11-25T12:33:06.678Z,17.08
2022-11-25T12:35:53.923Z,19.55
2022-11-25T12:38:37.765Z,21.15
2022-11-25T12:41:18.866Z,20.73
2022-11-25T12:43:50.928Z,23.30
2022-11-25T12:46:28.712Z,21.45
2022-11-25T12:48:58.995Z,20.55
2022-11-25T12:52:05.642Z,21.33
2022-11-25T12:55:06.121Z,22.05
2022-11-25T12:58:17.693Z,24.80
2022-11-25T13:01:34.458Z,17.85
2022-11-25T13:04:43.412Z,28.48
2022-11-25T13:07:28.898Z,21.70
2022-11-25T13:10:37.021Z,22.40
2022-11-25T13:13:24.172Z,26.13
2022-11-25T13:15:55.187Z,22.60
2022-11-25T13:18:28.319Z,28.70
2022-11-25T13:20:57.474Z,25.92
2022-11-25T13:23:31.465Z,22.02
2022-11-25T13:26:48.221Z,20.90
2022-11-25T13:30:00.454Z,24.25
2022-11-25T13:32:40.170Z,23.13
2022-11-25T13:35:52.058Z,19.95
2022-11-25T13:38:40.109Z,27.17
2022-11-25T13:41:47.051Z,22.42
2022-11-25T13:44:27.970Z,26.90
2022-11-25T13:46:58.375Z,25.33
2022-11-25T13:49:51.565Z,23.95
2022-11-25T13:52:36.538Z,21.80
2022-11-25T13:55:21.416Z,21.00
2022-11-25T13:58:15.913Z,20.38
2022-11-25T14:01:29.518Z,22.75
2022-11-25T14:04:01.036Z,20.00
2022-11-25T14:06:43.093Z,20.23
2022-11-25T14:09:32.408Z,27.60
2022-11-25T14:12:17.778Z,26.63
2022-11-25T14:15:04.584Z,22.70
2022-11-25T14:18:05.168Z,24.50
2022-11-25T14:20:44.478Z,16.48
2022-11-25T14:23:54.136Z,23.63
2022-11-25T14:26:48.889Z,22.38
2022-11-25T14:29:22.774Z,21.58
2022-11-25T14:31:57.372Z,18.08
2022-11-25T14:34:32.929Z,19.95
2022-11-25T14:37:09.524Z,18.38
2022-11-25T14:39:44.672Z,22.52
2022-11-25T14:42:17.569Z,20.42
2022-11-25T14:44:50.155Z,21.63
2022-11-25T14:47:25.369Z,22.00
2022-11-25T14:50:18.737Z,22.20
2022-11-25T14:52:47.666Z,23.33
2022-11-25T14:55:28.341Z,17.15
2022-11-25T14:57:57.024Z,18.15
2022-11-25T15:00:25.730Z,18.45
2022-11-25T15:02:58.041Z,14.40
2022-11-25T15:05:33.129Z,14.52
2022-11-25T15:08:09.936Z,25.35
2022-11-25T15:10:44.168Z,17.10
2022-11-25T15:13:28.624Z,18.23
2022-11-25T15:16:08.403Z,14.88
2022-11-25T15:18:39.367Z,22.05
2022-11-25T15:21:08.100Z,16.52
2022-11-25T15:23:39.260Z,17.52
2022-11-25T15:26:20.428Z,15.98
2022-11-25T15:28:55.662Z,15.07
2022-11-25T15:31:30.183Z,17.48
2022-11-25T15:34:02.496Z,18.13
2022-11-25T15:36:31.314Z,19.27
2022-11-25T15:39:25.444Z,19.50
2022-11-25T15:41:56.275Z,21.05
2022-11-25T15:44:28.582Z,21.70
2022-11-25T15:47:02.240Z,19.40
2022-11-25T15:49:33.255Z,20.42
2022-11-25T15:52:08.475Z,26.20
2022-11-25T15:54:42.927Z,23.25
2022-11-25T15:57:19.344Z,19.23
2022-11-25T15:59:51.444Z,18.15
2022-11-25T16:02:49.075Z,18.15
2022-11-25T16:05:37.900Z,17.48
2022-11-25T16:08:30.911Z,15.75
2022-11-25T16:11:02.492Z,19.17
2022-11-25T16:13:36.544Z,20.27
2022-11-25T16:16:15.746Z,16.02
2022-11-25T16:19:06.068Z,17.95
2022-11-25T16:21:51.616Z,14.65
2022-11-25T16:24:33.878Z,27.48
2022-11-25T16:27:04.313Z,16.15
2022-11-25T16:29:36.717Z,19.73
2022-11-25T16:32:18.614Z,17.48
2022-11-25T16:34:47.276Z,16.05
2022-11-25T16:37:17.144Z,21.30
2022-11-25T16:39:45.625Z,19.40
2022-11-25T16:42:23.756Z,17.80
2022-11-25T16:44:53.634Z,17.73
2022-11-25T16:47:24.156Z,15.93
2022-11-25T16:49:52.419Z,20.17
2022-11-25T16:52:22.420Z,25.00
2022-11-25T16:54:50.784Z,22.15
2022-11-25T16:57:22.560Z,22.27
2022-11-25T16:59:58.809Z,20.58
2022-11-25T17:02:27.639Z,18.77
2022-11-25T17:05:15.495Z,21.05
2022-11-25T17:07:45.253Z,19.33
2022-11-25T17:10:14.255Z,16.80
2022-11-25T17:12:45.383Z,20.05
2022-11-25T17:15:17.783Z,11.88
2022-11-25T17:17:47.862Z,18.73
2022-11-25T17:20:18.812Z,22.73
2022-11-25T17:22:49.002Z,22.50
2022-11-25T17:25:17.977Z,18.50
2022-11-25T17:27:46.926Z,19.70
2022-11-25T17:30:20.765Z,16.90
2022-11-25T17:32:53.714Z,15.65
2022-11-25T17:35:22.752Z,18.00
2022-11-25T17:37:52.489Z,17.42
2022-11-25T17:40:21.018Z,23.53
2022-11-25T17:42:50.142Z,17.42
2022-11-25T17:45:21.586Z,20.15
2022-11-25T17:47:50.552Z,22.02
2022-11-25T17:50:21.743Z,20.35
2022-11-25T17:52:50.476Z,24.42
2022-11-25T17:55:21.908Z,27.73
2022-11-25T17:57:50.802Z,21.95
2022-11-25T18:00:23.015Z,20.38
2022-11-25T18:02:51.992Z,20.92
2022-11-25T18:05:23.078Z,21.05
2022-11-25T18:07:52.252Z,26.17
2022-11-25T18:10:25.730Z,20.98
2022-11-25T18:12:56.411Z,20.88
2022-11-25T18:15:27.406Z,21.77
2022-11-25T18:18:03.328Z,20.25
2022-11-25T18:20:33.087Z,20.08
2022-11-25T18:23:01.811Z,20.10
2022-11-25T18:25:33.725Z,18.35
2022-11-25T18:28:02.820Z,23.42
2022-11-25T18:30:34.809Z,19.77
2022-11-25T18:33:06.234Z,31.42
2022-11-25T18:35:36.776Z,25.30
2022-11-25T18:38:06.203Z,20.38
2022-11-25T18:40:39.758Z,25.08
2022-11-25T18:43:14.629Z,20.67
2022-11-25T18:45:43.183Z,19.30
2022-11-25T18:48:17.711Z,15.85
2022-11-25T18:50:47.807Z,22.95
2022-11-25T18:53:16.587Z,16.70
2022-11-25T18:55:47.693Z,22.55
2022-11-25T18:58:21.174Z,22.20
2022-11-25T19:00:52.495Z,33.47
2022-11-25T19:03:24.367Z,28.27
2022-11-25T19:05:54.202Z,22.52
2022-11-25T19:08:22.652Z,18.90
2022-11-25T19:10:52.816Z,25.98
2022-11-25T19:13:27.652Z,25.23
2022-11-25T19:15:58.248Z,21.42
2022-11-25T19:18:29.788Z,23.10
2022-11-25T19:20:58.116Z,26.33
2022-11-25T19:23:28.274Z,20.67
2022-11-25T19:26:03.148Z,22.02
2022-11-25T19:28:32.666Z,32.97
2022-11-25T19:31:04.473Z,25.85
2022-11-25T19:33:36.548Z,19.38
2022-11-25T19:36:05.366Z,22.05
2022-11-25T19:38:34.795Z,20.55
2022-11-25T19:41:04.731Z,23.77
2022-11-25T19:43:33.171Z,24.77
2022-11-25T19:46:03.383Z,22.10
2022-11-25T19:48:38.873Z,30.48
2022-11-25T19:51:07.501Z,22.80
2022-11-25T19:53:35.823Z,23.98
2022-11-25T19:56:05.847Z,19.83
2022-11-25T19:58:34.313Z,29.48
2022-11-25T20:01:05.918Z,24.35
2022-11-25T20:03:36.732Z,27.42
2022-11-25T20:06:06.713Z,28.92
2022-11-25T20:08:35.049Z,24.98
2022-11-25T20:11:03.353Z,26.25
2022-11-25T20:13:34.657Z,25.60
2022-11-25T20:16:03.302Z,27.05
2022-11-25T20:18:31.759Z,28.10
2022-11-25T20:21:05.162Z,24.63
2022-11-25T20:23:43.034Z,23.05
2022-11-25T20:26:18.128Z,24.27
2022-11-25T20:28:48.579Z,23.40
2022-11-25T20:31:16.947Z,34.53
2022-11-25T20:33:45.383Z,22.45
2022-11-25T20:36:17.256Z,25.25
2022-11-25T20:38:49.463Z,21.58
2022-11-25T20:41:21.683Z,27.85
2022-11-25T20:43:54.821Z,22.70
2022-11-25T20:46:27.024Z,21.58
2022-11-25T20:48:57.813Z,23.88
2022-11-25T20:51:27.180Z,24.80
2022-11-25T20:53:58.209Z,22.20
2022-11-25T20:56:28.241Z,27.38
2022-11-25T20:58:58.038Z,25.73
2022-11-25T21:01:26.416Z,23.80
2022-11-25T21:03:54.948Z,23.20
2022-11-25T21:06:27.985Z,29.95
2022-11-25T21:08:59.313Z,26.13
2022-11-25T21:11:28.280Z,26.05
2022-11-25T21:13:57.924Z,24.33
2022-11-25T21:16:26.522Z,27.85
2022-11-25T21:18:55.202Z,23.48
2022-11-25T21:21:30.659Z,27.80
2022-11-25T21:24:02.565Z,26.10
2022-11-25T21:26:30.833Z,30.27
2022-11-25T21:29:00.428Z,29.77
2022-11-25T21:31:29.032Z,28.05
2022-11-25T21:33:59.848Z,26.67
2022-11-25T21:39:04.396Z,28.40
2022-11-25T21:41:32.834Z,25.05
2022-11-25T21:44:05.591Z,21.60
2022-11-25T21:46:34.193Z,27.27
2022-11-25T21:49:02.991Z,22.92
2022-11-25T21:51:31.306Z,24.58
2022-11-25T21:53:59.726Z,25.98
2022-11-25T21:56:31.793Z,25.10
2022-11-25T21:59:04.786Z,23.88
2022-11-25T22:01:33.705Z,25.05
2022-11-25T22:04:02.035Z,20.63
2022-11-25T22:06:32.010Z,24.17
2022-11-25T22:09:00.370Z,15.73
2022-11-25T22:11:33.119Z,20.30
2022-11-25T22:14:05.542Z,18.95
2022-11-25T22:16:37.378Z,26.58
2022-11-25T22:19:06.120Z,22.50
2022-11-25T22:21:34.420Z,22.55
2022-11-25T22:24:03.079Z,25.05
2022-11-25T22:26:34.348Z,28.40
2022-11-25T22:29:04.522Z,33.22
2022-11-25T22:31:32.957Z,32.15
2022-11-25T22:34:01.306Z,25.17
2022-11-25T22:36:35.564Z,28.58
2022-11-25T22:39:15.579Z,25.13
2022-11-25T22:41:46.713Z,34.53
2022-11-25T22:44:22.504Z,26.05
2022-11-25T22:46:52.130Z,30.05
2022-11-25T22:49:31.286Z,25.73
2022-11-25T22:51:59.885Z,23.60
2022-11-25T22:54:28.239Z,27.58
2022-11-25T22:56:57.598Z,32.55
2022-11-25T22:59:27.263Z,20.67
2022-11-25T23:01:55.614Z,21.88
2022-11-25T23:04:23.947Z,28.83
2022-11-25T23:06:53.754Z,22.50
2022-11-25T23:09:22.211Z,21.13
2022-11-25T23:11:50.913Z,21.63
2022-11-25T23:14:19.193Z,22.63
2022-11-25T23:16:48.861Z,30.58
2022-11-25T23:19:17.863Z,22.17
2022-11-25T23:21:46.579Z,24.98
2022-11-25T23:24:17.975Z,22.55
2022-11-25T23:26:46.748Z,26.10
2022-11-25T23:29:16.862Z,23.75
2022-11-25T23:31:45.169Z,26.02
2022-11-25T23:34:14.969Z,22.38
2022-11-25T23:36:46.666Z,21.00
2022-11-25T23:39:21.551Z,22.73
2022-11-25T23:41:50.502Z,25.85
2022-11-25T23:44:24.628Z,24.75
2022-11-25T23:46:54.301Z,21.20
2022-11-25T23:49:29.278Z,21.73
2022-11-25T23:52:04.595Z,20.60
2022-11-25T23:54:40.993Z,22.23
2022-11-25T23:57:15.222Z,22.75
2022-11-25T23:59:43.716Z,27.70
